createdAt,value
2017-01-12T00:00:27.169Z,3.01
2017-01-12T00:01:27.025Z,3.08
2017-01-12T00:02:26.660Z,3.11
2017-01-12T00:03:26.825Z,3.11
2017-01-12T00:04:26.592Z,3.21
2017-01-12T00:05:27.339Z,3.18
2017-01-12T00:06:28.526Z,3.22
2017-01-12T00:07:27.141Z,3.22
2017-01-12T00:08:27.770Z,3.18
2017-01-12T00:09:26.852Z,3.26
2017-01-12T00:10:28.511Z,3.25
2017-01-12T00:11:27.182Z,3.29
2017-01-12T00:12:26.733Z,3.37
2017-01-12T00:13:27.278Z,3.59
2017-01-12T00:14:27.429Z,3.56
2017-01-12T00:15:27.125Z,3.53
2017-01-12T00:16:27.645Z,3.53
2017-01-12T00:17:27.978Z,3.66
2017-01-12T00:18:27.203Z,3.59
2017-01-12T00:19:27.348Z,3.59
2017-01-12T00:20:27.639Z,3.53
2017-01-12T00:21:27.647Z,3.41
2017-01-12T00:22:28.052Z,3.53
2017-01-12T00:23:27.436Z,3.5
2017-01-12T00:24:27.351Z,3.48
2017-01-12T00:25:27.088Z,3.56
2017-01-12T00:26:28.720Z,3.58
2017-01-12T00:27:27.397Z,3.5
2017-01-12T00:28:27.335Z,3.6
2017-01-12T00:29:26.946Z,3.92
2017-01-12T00:30:27.521Z,3.87
2017-01-12T00:31:27.651Z,3.81
2017-01-12T00:32:27.409Z,3.83
2017-01-12T00:33:28.373Z,3.8
2017-01-12T00:34:27.394Z,3.88
2017-01-12T00:35:27.990Z,3.88
2017-01-12T00:36:27.468Z,3.91
2017-01-12T00:37:28.928Z,3.88
2017-01-12T00:38:28.014Z,3.96
2017-01-12T00:39:26.933Z,3.87
2017-01-12T00:40:27.996Z,4.01
2017-01-12T00:41:27.998Z,4.1
2017-01-12T00:42:27.761Z,4.17
2017-01-12T00:43:27.142Z,4.1
2017-01-12T00:44:27.600Z,4.17
2017-01-12T00:45:28.071Z,4.28
2017-01-12T00:46:28.064Z,4.2
2017-01-12T00:47:27.196Z,4.35
2017-01-12T00:48:27.132Z,4.26
2017-01-12T00:49:27.684Z,4.24
2017-01-12T00:50:27.588Z,4.28
2017-01-12T00:51:27.078Z,4.37
2017-01-12T00:52:27.265Z,4.44
2017-01-12T00:53:27.883Z,4.38
2017-01-12T00:54:28.203Z,4.48
2017-01-12T00:55:27.539Z,4.41
2017-01-12T00:56:28.600Z,4.34
2017-01-12T00:57:28.483Z,4.28
2017-01-12T00:58:28.614Z,4.37
2017-01-12T00:59:27.977Z,4.42
2017-01-12T01:00:29.087Z,4.38
2017-01-12T01:01:27.580Z,4.35
2017-01-12T01:02:28.641Z,4.32
2017-01-12T01:03:28.054Z,4.31
2017-01-12T01:04:27.466Z,4.34
2017-01-12T01:05:28.873Z,4.31
2017-01-12T01:06:27.658Z,4.24
2017-01-12T01:07:27.671Z,4.14
2017-01-12T01:08:27.606Z,4.04
2017-01-12T01:09:28.659Z,3.99
2017-01-12T01:10:27.594Z,3.96
2017-01-12T01:11:28.445Z,3.87
2017-01-12T01:12:28.357Z,3.87
2017-01-12T01:13:27.746Z,3.78
2017-01-12T01:14:28.131Z,3.7
2017-01-12T01:15:28.143Z,3.62
2017-01-12T01:16:29.459Z,3.68
2017-01-12T01:17:27.515Z,3.73
2017-01-12T01:18:28.412Z,3.78
2017-01-12T01:19:28.085Z,3.98
2017-01-12T01:20:27.870Z,4.02
2017-01-12T01:21:28.740Z,4.04
2017-01-12T01:22:28.123Z,3.94
2017-01-12T01:23:28.469Z,3.87
2017-01-12T01:24:27.893Z,3.95
2017-01-12T01:25:28.026Z,3.92
2017-01-12T01:26:28.387Z,4.1
2017-01-12T01:27:28.447Z,4.02
2017-01-12T01:28:28.788Z,3.81
2017-01-12T01:29:27.942Z,4.04
2017-01-12T01:30:28.022Z,4.01
2017-01-12T01:31:29.000Z,4.06
2017-01-12T01:32:28.230Z,4.1
2017-01-12T01:33:28.443Z,4.02
2017-01-12T01:34:27.801Z,4.1
2017-01-12T01:35:29.274Z,4.01
2017-01-12T01:36:28.634Z,3.98
2017-01-12T01:37:28.893Z,3.87
2017-01-12T01:38:28.480Z,3.92
2017-01-12T01:39:29.156Z,4.01
2017-01-12T01:40:27.897Z,4.14
2017-01-12T01:41:28.371Z,4.13
2017-01-12T01:42:29.257Z,4.17
2017-01-12T01:43:28.839Z,4.32
2017-01-12T01:44:29.042Z,4.3
2017-01-12T01:45:29.036Z,4.42
2017-01-12T01:46:28.648Z,4.44
2017-01-12T01:47:28.949Z,4.4
2017-01-12T01:48:28.503Z,4.3
2017-01-12T01:49:30.090Z,4.32
2017-01-12T01:50:28.565Z,4.4
2017-01-12T01:51:28.761Z,4.38
2017-01-12T01:52:28.428Z,4.34
2017-01-12T01:53:28.218Z,4.26
2017-01-12T01:54:28.588Z,4.3
2017-01-12T01:55:28.819Z,4.3
2017-01-12T01:56:28.191Z,4.17
2017-01-12T01:57:29.144Z,4.31
2017-01-12T01:58:28.037Z,4.31
2017-01-12T01:59:28.642Z,4.2
2017-01-12T02:00:29.112Z,4.17
2017-01-12T02:01:29.676Z,4.19
2017-01-12T02:02:28.421Z,4.17
2017-01-12T02:03:29.923Z,4.22
2017-01-12T02:04:29.083Z,3.99
2017-01-12T02:05:28.981Z,3.99
2017-01-12T02:06:29.601Z,4.02
2017-01-12T02:07:29.769Z,4.14
2017-01-12T02:08:30.046Z,4.3
2017-01-12T02:09:28.873Z,4.35
2017-01-12T02:10:29.912Z,4.28
2017-01-12T02:11:28.237Z,4.32
2017-01-12T02:12:29.100Z,4.37
2017-01-12T02:13:29.406Z,4.31
2017-01-12T02:14:28.944Z,4.24
2017-01-12T02:15:29.964Z,4.24
2017-01-12T02:16:28.891Z,4.26
2017-01-12T02:17:29.461Z,4.16
2017-01-12T02:18:28.864Z,4.22
2017-01-12T02:19:28.673Z,4.1
2017-01-12T02:20:28.955Z,4.16
2017-01-12T02:21:29.045Z,4.28
2017-01-12T02:22:29.145Z,4.3
2017-01-12T02:23:29.421Z,4.35
2017-01-12T02:24:29.310Z,4.49
2017-01-12T02:25:29.481Z,4.32
2017-01-12T02:26:29.223Z,4.4
2017-01-12T02:27:28.961Z,4.52
2017-01-12T02:28:29.269Z,4.41
2017-01-12T02:29:29.374Z,4.49
2017-01-12T02:30:29.133Z,4.5
2017-01-12T02:31:29.246Z,4.55
2017-01-12T02:32:29.606Z,4.49
2017-01-12T02:33:28.918Z,4.63
2017-01-12T02:34:28.771Z,4.71
2017-01-12T02:35:28.966Z,4.59
2017-01-12T02:36:28.939Z,4.49
2017-01-12T02:37:28.728Z,4.62
2017-01-12T02:38:29.436Z,4.59
2017-01-12T02:39:29.861Z,4.58
2017-01-12T02:40:29.401Z,4.45
2017-01-12T02:41:28.810Z,4.55
2017-01-12T02:42:29.335Z,4.7
2017-01-12T02:43:29.492Z,4.63
2017-01-12T02:44:28.987Z,4.6
2017-01-12T02:45:29.498Z,4.55
2017-01-12T02:46:30.064Z,4.5
2017-01-12T02:47:29.290Z,4.49
2017-01-12T02:48:28.772Z,4.53
2017-01-12T02:49:29.212Z,4.59
2017-01-12T02:50:29.259Z,4.58
2017-01-12T02:51:29.198Z,4.52
2017-01-12T02:52:29.566Z,4.58
2017-01-12T02:53:29.610Z,4.37
2017-01-12T02:54:29.482Z,4.49
2017-01-12T02:55:29.492Z,4.55
2017-01-12T02:56:29.264Z,4.5
2017-01-12T02:57:30.339Z,4.41
2017-01-12T02:58:30.076Z,4.52
2017-01-12T02:59:29.328Z,4.42
2017-01-12T03:00:29.535Z,4.31
2017-01-12T03:01:28.703Z,4.28
2017-01-12T03:02:29.150Z,4.23
2017-01-12T03:03:29.797Z,4.14
2017-01-12T03:04:29.289Z,4.2
2017-01-12T03:05:29.070Z,4.17
2017-01-12T03:06:29.327Z,4.23
2017-01-12T03:07:30.189Z,4.17
2017-01-12T03:08:30.333Z,4.16
2017-01-12T03:09:29.331Z,4.16
2017-01-12T03:10:29.774Z,4.14
2017-01-12T03:11:29.419Z,4.16
2017-01-12T03:12:29.509Z,4.19
2017-01-12T03:13:29.854Z,4.2
2017-01-12T03:14:29.022Z,4.32
2017-01-12T03:15:30.807Z,4.35
2017-01-12T03:16:30.078Z,4.37
2017-01-12T03:17:29.508Z,4.41
2017-01-12T03:18:29.548Z,4.32
2017-01-12T03:19:29.102Z,4.32
2017-01-12T03:20:29.874Z,4.42
2017-01-12T03:21:29.961Z,4.3
2017-01-12T03:22:30.436Z,4.37
2017-01-12T03:23:29.268Z,4.44
2017-01-12T03:24:30.383Z,4.42
2017-01-12T03:25:30.136Z,4.42
2017-01-12T03:26:29.149Z,4.49
2017-01-12T03:27:31.157Z,4.58
2017-01-12T03:28:29.828Z,4.52
2017-01-12T03:29:29.542Z,4.59
2017-01-12T03:30:29.713Z,4.52
2017-01-12T03:31:30.450Z,4.52
2017-01-12T03:32:29.433Z,4.56
2017-01-12T03:33:30.290Z,4.45
2017-01-12T03:34:29.723Z,4.42
2017-01-12T03:35:30.237Z,4.41
2017-01-12T03:36:29.611Z,4.5
2017-01-12T03:37:29.395Z,4.42
2017-01-12T03:38:29.911Z,4.66
2017-01-12T03:39:30.065Z,4.5
2017-01-12T03:40:30.715Z,4.45
2017-01-12T03:41:30.231Z,4.55
2017-01-12T03:42:30.393Z,4.49
2017-01-12T03:43:29.724Z,4.49
2017-01-12T03:44:30.552Z,4.41
2017-01-12T03:45:30.378Z,4.4
2017-01-12T03:46:29.609Z,4.31
2017-01-12T03:47:30.516Z,4.44
2017-01-12T03:48:30.259Z,4.4
2017-01-12T03:49:29.798Z,4.44
2017-01-12T03:50:30.544Z,4.41
2017-01-12T03:51:30.289Z,4.44
2017-01-12T03:52:30.764Z,4.45
2017-01-12T03:53:30.088Z,4.45
2017-01-12T03:54:29.689Z,4.48
2017-01-12T03:55:29.851Z,4.53
2017-01-12T03:56:30.504Z,4.66
2017-01-12T03:57:29.925Z,4.53
2017-01-12T03:58:29.706Z,4.49
2017-01-12T03:59:30.027Z,4.42
2017-01-12T04:00:30.565Z,4.52
2017-01-12T04:01:30.439Z,4.42
2017-01-12T04:02:30.077Z,4.4
2017-01-12T04:03:30.843Z,4.4
2017-01-12T04:04:29.748Z,4.4
2017-01-12T04:05:30.621Z,4.44
2017-01-12T04:06:30.322Z,4.37
2017-01-12T04:07:30.242Z,4.42
2017-01-12T04:08:31.017Z,4.44
2017-01-12T04:09:29.758Z,4.42
2017-01-12T04:10:30.623Z,4.48
2017-01-12T04:11:29.939Z,4.42
2017-01-12T04:12:30.971Z,4.41
2017-01-12T04:13:30.009Z,4.41
2017-01-12T04:14:30.034Z,4.44
2017-01-12T04:15:30.525Z,4.5
2017-01-12T04:16:30.842Z,4.41
2017-01-12T04:17:29.921Z,4.42
2017-01-12T04:18:29.883Z,4.45
2017-01-12T04:19:31.570Z,4.41
2017-01-12T04:20:30.245Z,4.38
2017-01-12T04:21:30.056Z,4.4
2017-01-12T04:22:30.601Z,4.49
2017-01-12T04:23:30.213Z,4.53
2017-01-12T04:24:30.723Z,4.52
2017-01-12T04:25:30.299Z,4.45
2017-01-12T04:26:30.541Z,4.55
2017-01-12T04:27:31.272Z,4.73
2017-01-12T04:28:31.074Z,4.66
2017-01-12T04:29:30.310Z,4.59
2017-01-12T04:30:30.422Z,4.62
2017-01-12T04:31:30.733Z,4.62
2017-01-12T04:32:30.444Z,4.58
2017-01-12T04:33:31.125Z,4.5
2017-01-12T04:34:30.680Z,4.58
2017-01-12T04:35:30.213Z,4.59
2017-01-12T04:36:30.207Z,4.7
2017-01-12T04:37:31.293Z,4.7
2017-01-12T04:38:31.020Z,4.78
2017-01-12T04:39:31.290Z,4.86
2017-01-12T04:40:31.276Z,4.87
2017-01-12T04:41:30.592Z,4.84
2017-01-12T04:42:30.343Z,4.9
2017-01-12T04:43:30.290Z,4.84
2017-01-12T04:44:30.607Z,4.7
2017-01-12T04:45:31.074Z,4.7
2017-01-12T04:46:31.199Z,4.71
2017-01-12T04:47:30.896Z,4.74
2017-01-12T04:48:31.209Z,4.7
2017-01-12T04:49:30.549Z,4.73
2017-01-12T04:50:30.698Z,4.7
2017-01-12T04:51:30.485Z,4.74
2017-01-12T04:52:31.127Z,4.75
2017-01-12T04:53:31.921Z,4.74
2017-01-12T04:54:30.967Z,4.71
2017-01-12T04:55:31.038Z,4.73
2017-01-12T04:56:31.080Z,4.75
2017-01-12T04:57:30.367Z,4.82
2017-01-12T04:58:31.318Z,4.82
2017-01-12T04:59:31.171Z,4.89
2017-01-12T05:00:32.058Z,4.86
2017-01-12T05:01:30.935Z,4.93
2017-01-12T05:02:31.159Z,4.89
2017-01-12T05:03:31.654Z,4.97
2017-01-12T05:04:31.451Z,5.02
2017-01-12T05:05:30.494Z,4.97
2017-01-12T05:06:31.167Z,5.04
2017-01-12T05:07:30.854Z,5.02
2017-01-12T05:08:31.044Z,4.9
2017-01-12T05:09:32.967Z,4.84
2017-01-12T05:10:32.492Z,4.87
2017-01-12T05:11:32.595Z,4.86
2017-01-12T05:12:33.893Z,4.82
2017-01-12T05:13:31.423Z,4.84
2017-01-12T05:14:32.421Z,4.84
2017-01-12T05:15:33.217Z,4.89
2017-01-12T05:16:32.663Z,4.87
2017-01-12T05:17:33.507Z,4.8
2017-01-12T05:18:31.655Z,4.77
2017-01-12T05:19:33.079Z,4.89
2017-01-12T05:20:34.042Z,4.87
2017-01-12T05:21:33.997Z,4.84
2017-01-12T05:22:34.042Z,4.86
2017-01-12T05:23:32.985Z,4.67
2017-01-12T05:24:32.526Z,4.77
2017-01-12T05:25:34.371Z,4.8
2017-01-12T05:26:32.678Z,4.89
2017-01-12T05:27:32.640Z,4.87
2017-01-12T05:28:33.690Z,4.86
2017-01-12T05:29:32.190Z,4.89
2017-01-12T05:30:33.917Z,4.82
2017-01-12T05:31:33.692Z,4.89
2017-01-12T05:32:35.097Z,4.97
2017-01-12T05:33:33.148Z,4.84
2017-01-12T05:34:33.066Z,4.9
2017-01-12T05:35:33.127Z,4.87
2017-01-12T05:36:33.696Z,4.93
2017-01-12T05:37:32.974Z,4.99
2017-01-12T05:38:34.685Z,4.94
2017-01-12T05:39:32.452Z,4.94
2017-01-12T05:40:31.884Z,4.97
2017-01-12T05:41:32.758Z,4.99
2017-01-12T05:42:32.752Z,4.89
2017-01-12T05:43:33.921Z,4.99
2017-01-12T05:44:32.886Z,4.9
2017-01-12T05:45:31.975Z,4.9
2017-01-12T05:46:32.862Z,4.93
2017-01-12T05:47:32.531Z,4.9
2017-01-12T05:48:32.275Z,4.87
2017-01-12T05:49:31.891Z,4.93
2017-01-12T05:50:32.115Z,4.87
2017-01-12T05:51:33.350Z,4.8
2017-01-12T05:52:32.669Z,4.82
2017-01-12T05:53:31.839Z,4.86
2017-01-12T05:54:32.054Z,4.86
2017-01-12T05:55:31.914Z,4.8
2017-01-12T05:56:32.384Z,4.77
2017-01-12T05:57:32.248Z,4.82
2017-01-12T05:58:32.670Z,4.94
2017-01-12T05:59:31.573Z,4.86
2017-01-12T06:00:31.969Z,4.92
2017-01-12T06:01:33.153Z,4.93
2017-01-12T06:02:31.552Z,4.8
2017-01-12T06:03:32.569Z,4.9
2017-01-12T06:04:31.930Z,4.82
2017-01-12T06:05:32.796Z,4.84
2017-01-12T06:06:32.250Z,4.68
2017-01-12T06:07:33.659Z,4.89
2017-01-12T06:08:33.409Z,4.99
2017-01-12T06:09:32.298Z,4.92
2017-01-12T06:10:33.412Z,4.99
2017-01-12T06:11:34.332Z,4.99
2017-01-12T06:12:32.554Z,4.87
2017-01-12T06:13:32.184Z,4.89
2017-01-12T06:14:32.994Z,4.87
2017-01-12T06:15:33.146Z,4.77
2017-01-12T06:16:32.045Z,4.84
2017-01-12T06:17:34.336Z,4.92
2017-01-12T06:18:32.432Z,4.86
2017-01-12T06:19:33.117Z,4.84
2017-01-12T06:20:32.598Z,4.89
2017-01-12T06:21:34.132Z,4.87
2017-01-12T06:22:33.273Z,4.8
2017-01-12T06:23:34.126Z,4.87
2017-01-12T06:24:33.087Z,4.84
2017-01-12T06:25:32.648Z,4.87
2017-01-12T06:26:33.715Z,4.84
2017-01-12T06:27:33.304Z,4.86
2017-01-12T06:28:33.078Z,4.86
2017-01-12T06:29:32.036Z,4.78
2017-01-12T06:30:31.882Z,4.87
2017-01-12T06:31:31.968Z,4.86
2017-01-12T06:32:32.189Z,4.8
2017-01-12T06:33:33.068Z,4.87
2017-01-12T06:34:32.928Z,4.97
2017-01-12T06:35:32.232Z,4.93
2017-01-12T06:36:32.239Z,4.97
2017-01-12T06:37:32.724Z,4.97
2017-01-12T06:38:32.947Z,5.12
2017-01-12T06:39:32.478Z,5
2017-01-12T06:40:32.112Z,5.02
2017-01-12T06:41:33.074Z,5
2017-01-12T06:42:33.134Z,5.05
2017-01-12T06:43:32.611Z,5.14
2017-01-12T06:44:32.451Z,5.04
2017-01-12T06:45:33.115Z,5.05
2017-01-12T06:46:32.536Z,4.99
2017-01-12T06:47:32.057Z,5.02
2017-01-12T06:48:32.805Z,5.05
2017-01-12T06:49:32.979Z,5.17
2017-01-12T06:50:32.906Z,5.12
2017-01-12T06:51:33.418Z,5.14
2017-01-12T06:52:33.066Z,5.11
2017-01-12T06:53:33.113Z,5.15
2017-01-12T06:54:32.776Z,5.1
2017-01-12T06:55:32.233Z,5.02
2017-01-12T06:56:32.993Z,5
2017-01-12T06:57:32.937Z,4.96
2017-01-12T06:58:33.970Z,5
2017-01-12T06:59:33.277Z,5
2017-01-12T07:00:33.029Z,4.9
2017-01-12T07:01:34.887Z,4.99
2017-01-12T07:02:33.539Z,5.04
2017-01-12T07:03:34.026Z,4.96
2017-01-12T07:04:34.494Z,5.04
2017-01-12T07:05:34.615Z,5.02
2017-01-12T07:06:33.272Z,4.97
2017-01-12T07:07:34.196Z,5.07
2017-01-12T07:08:33.059Z,4.97
2017-01-12T07:09:34.169Z,4.9
2017-01-12T07:10:34.293Z,4.87
2017-01-12T07:11:33.679Z,4.87
2017-01-12T07:12:35.126Z,4.82
2017-01-12T07:13:33.005Z,4.82
2017-01-12T07:14:33.617Z,4.68
2017-01-12T07:15:33.408Z,4.71
2017-01-12T07:16:33.327Z,4.75
2017-01-12T07:17:34.009Z,4.75
2017-01-12T07:18:34.701Z,4.75
2017-01-12T07:19:33.532Z,4.71
2017-01-12T07:20:33.232Z,4.7
2017-01-12T07:21:33.115Z,4.7
2017-01-12T07:22:33.094Z,4.74
2017-01-12T07:23:33.507Z,4.68
2017-01-12T07:24:34.317Z,4.67
2017-01-12T07:25:33.512Z,4.7
2017-01-12T07:26:33.409Z,4.68
2017-01-12T07:27:33.969Z,4.7
2017-01-12T07:28:33.760Z,4.67
2017-01-12T07:29:34.206Z,4.68
2017-01-12T07:30:33.384Z,4.89
2017-01-12T07:31:33.763Z,4.86
2017-01-12T07:32:32.879Z,4.9
2017-01-12T07:33:33.720Z,4.96
2017-01-12T07:34:33.431Z,4.84
2017-01-12T07:35:33.677Z,4.86
2017-01-12T07:36:32.972Z,4.8
2017-01-12T07:37:33.212Z,4.87
2017-01-12T07:38:33.760Z,4.93
2017-01-12T07:39:34.262Z,4.82
2017-01-12T07:40:34.315Z,4.86
2017-01-12T07:41:33.314Z,4.89
2017-01-12T07:42:35.827Z,4.78
2017-01-12T07:43:34.077Z,4.84
2017-01-12T07:44:35.249Z,4.68
2017-01-12T07:45:34.968Z,4.71
2017-01-12T07:46:33.721Z,4.82
2017-01-12T07:47:33.620Z,4.8
2017-01-12T07:48:34.413Z,4.89
2017-01-12T07:49:33.461Z,4.92
2017-01-12T07:50:33.565Z,4.87
2017-01-12T07:51:33.737Z,4.89
2017-01-12T07:52:34.742Z,4.8
2017-01-12T07:53:33.560Z,4.89
2017-01-12T07:54:34.423Z,4.8
2017-01-12T07:55:33.393Z,4.89
2017-01-12T07:56:34.084Z,4.84
2017-01-12T07:57:34.763Z,4.84
2017-01-12T07:58:34.358Z,4.89
2017-01-12T07:59:34.333Z,4.7
2017-01-12T08:00:33.348Z,4.75
2017-01-12T08:01:33.471Z,4.77
2017-01-12T08:02:34.814Z,4.67
2017-01-12T08:03:34.139Z,4.67
2017-01-12T08:04:33.845Z,4.78
2017-01-12T08:05:33.374Z,4.68
2017-01-12T08:06:33.469Z,4.86
2017-01-12T08:07:33.409Z,4.73
2017-01-12T08:08:33.546Z,4.71
2017-01-12T08:09:33.550Z,4.7
2017-01-12T08:10:34.608Z,4.7
2017-01-12T08:11:33.297Z,4.63
2017-01-12T08:12:34.674Z,4.62
2017-01-12T08:13:34.067Z,4.74
2017-01-12T08:14:33.698Z,4.89
2017-01-12T08:15:34.312Z,4.86
2017-01-12T08:16:33.635Z,4.84
2017-01-12T08:17:33.499Z,4.84
2017-01-12T08:18:33.316Z,4.94
2017-01-12T08:19:33.427Z,4.93
2017-01-12T08:20:33.274Z,4.9
2017-01-12T08:21:33.921Z,4.87
2017-01-12T08:22:34.018Z,4.84
2017-01-12T08:23:34.471Z,4.86
2017-01-12T08:24:33.475Z,4.89
2017-01-12T08:25:33.458Z,4.9
2017-01-12T08:26:34.549Z,5.05
2017-01-12T08:27:33.359Z,5.1
2017-01-12T08:28:33.343Z,5.12
2017-01-12T08:29:34.578Z,5.18
2017-01-12T08:30:33.901Z,5.14
2017-01-12T08:31:33.687Z,5.21
2017-01-12T08:32:34.195Z,5.28
2017-01-12T08:33:34.330Z,5.23
2017-01-12T08:34:35.533Z,5.21
2017-01-12T08:35:33.769Z,5.12
2017-01-12T08:36:34.429Z,5.15
2017-01-12T08:37:34.219Z,5.14
2017-01-12T08:38:34.596Z,5.14
2017-01-12T08:39:34.257Z,5.08
2017-01-12T08:40:34.601Z,5.1
2017-01-12T08:41:34.615Z,5.12
2017-01-12T08:42:33.762Z,5.2
2017-01-12T08:43:33.632Z,5.08
2017-01-12T08:44:34.794Z,5.2
2017-01-12T08:45:34.973Z,5.21
2017-01-12T08:46:33.839Z,5.17
2017-01-12T08:47:33.785Z,5.11
2017-01-12T08:48:34.794Z,5.17
2017-01-12T08:49:34.199Z,5.08
2017-01-12T08:50:34.081Z,5.11
2017-01-12T08:51:34.919Z,5.1
2017-01-12T08:52:33.837Z,5.28
2017-01-12T08:53:34.439Z,5.23
2017-01-12T08:54:33.656Z,5.32
2017-01-12T08:55:33.977Z,5.28
2017-01-12T08:56:34.393Z,5.3
2017-01-12T08:57:35.224Z,5.39
2017-01-12T08:58:34.661Z,5.33
2017-01-12T08:59:34.444Z,5.46
2017-01-12T09:00:34.178Z,5.43
2017-01-12T09:01:35.039Z,5.43
2017-01-12T09:02:34.753Z,5.62
2017-01-12T09:03:34.028Z,5.61
2017-01-12T09:04:34.981Z,5.62
2017-01-12T09:05:36.229Z,5.59
2017-01-12T09:06:34.649Z,5.61
2017-01-12T09:07:34.422Z,5.54
2017-01-12T09:08:35.012Z,5.54
2017-01-12T09:09:35.754Z,5.53
2017-01-12T09:10:34.729Z,5.57
2017-01-12T09:11:35.132Z,5.57
2017-01-12T09:12:34.762Z,5.5
2017-01-12T09:13:35.650Z,5.61
2017-01-12T09:14:34.304Z,5.66
2017-01-12T09:15:34.683Z,5.69
2017-01-12T09:16:35.136Z,5.72
2017-01-12T09:17:35.699Z,5.86
2017-01-12T09:18:34.155Z,5.99
2017-01-12T09:19:34.692Z,5.94
2017-01-12T09:20:35.078Z,5.99
2017-01-12T09:21:34.847Z,6.04
2017-01-12T09:22:34.465Z,6.14
2017-01-12T09:23:34.959Z,6.33
2017-01-12T09:24:35.720Z,6.35
2017-01-12T09:25:34.872Z,6.33
2017-01-12T09:26:34.733Z,6.16
2017-01-12T09:27:35.209Z,5.94
2017-01-12T09:28:35.585Z,6.07
2017-01-12T09:29:35.083Z,6.04
2017-01-12T09:30:34.752Z,5.98
2017-01-12T09:31:34.753Z,5.98
2017-01-12T09:32:35.067Z,5.99
2017-01-12T09:33:35.022Z,6.02
2017-01-12T09:34:36.134Z,5.98
2017-01-12T09:35:34.921Z,5.93
2017-01-12T09:36:35.121Z,5.84
2017-01-12T09:37:35.487Z,5.86
2017-01-12T09:38:35.007Z,5.83
2017-01-12T09:39:34.693Z,5.69
2017-01-12T09:40:35.026Z,5.76
2017-01-12T09:41:35.046Z,5.71
2017-01-12T09:42:35.001Z,5.82
2017-01-12T09:43:34.495Z,5.84
2017-01-12T09:44:34.661Z,5.82
2017-01-12T09:45:34.748Z,5.94
2017-01-12T09:46:34.930Z,5.89
2017-01-12T09:47:34.898Z,5.93
2017-01-12T09:48:35.584Z,5.87
2017-01-12T09:49:34.996Z,5.86
2017-01-12T09:50:35.479Z,5.91
2017-01-12T09:51:35.949Z,5.87
2017-01-12T09:52:35.555Z,5.87
2017-01-12T09:53:34.817Z,5.84
2017-01-12T09:54:34.990Z,5.89
2017-01-12T09:55:35.990Z,5.89
2017-01-12T09:56:35.377Z,5.97
2017-01-12T09:57:35.241Z,6.01
2017-01-12T09:58:35.273Z,6.08
2017-01-12T09:59:35.805Z,6.08
2017-01-12T10:00:35.267Z,6.02
2017-01-12T10:01:35.660Z,5.99
2017-01-12T10:02:35.948Z,6.04
2017-01-12T10:03:34.803Z,6.05
2017-01-12T10:04:35.086Z,6.11
2017-01-12T10:05:35.311Z,6.08
2017-01-12T10:06:35.656Z,6.08
2017-01-12T10:07:35.699Z,6.08
2017-01-12T10:08:35.121Z,6.05
2017-01-12T10:09:35.493Z,6.11
2017-01-12T10:10:36.347Z,6.12
2017-01-12T10:11:35.657Z,6.14
2017-01-12T10:12:35.348Z,6.09
2017-01-12T10:13:35.782Z,6.08
2017-01-12T10:14:36.247Z,6.26
2017-01-12T10:15:35.380Z,6.12
2017-01-12T10:16:35.526Z,6.2
2017-01-12T10:17:35.206Z,6.17
2017-01-12T10:18:35.608Z,6.17
2017-01-12T10:19:35.912Z,6.11
2017-01-12T10:20:36.572Z,6.12
2017-01-12T10:21:36.181Z,6.11
2017-01-12T10:22:36.135Z,6.11
2017-01-12T10:23:35.212Z,6.05
2017-01-12T10:24:35.985Z,6.09
2017-01-12T10:25:35.756Z,6.07
2017-01-12T10:26:35.601Z,6.22
2017-01-12T10:27:35.761Z,6.16
2017-01-12T10:28:34.968Z,6.16
2017-01-12T10:29:35.965Z,6.19
2017-01-12T10:30:36.831Z,6.12
2017-01-12T10:31:35.497Z,6.14
2017-01-12T10:32:35.535Z,6.24
2017-01-12T10:33:36.918Z,6.17
2017-01-12T10:34:37.981Z,6.17
2017-01-12T10:35:35.967Z,6.16
2017-01-12T10:36:35.815Z,6.19
2017-01-12T10:37:36.600Z,6.3
2017-01-12T10:38:35.248Z,6.22
2017-01-12T10:39:36.319Z,6.08
2017-01-12T10:40:35.473Z,6.16
2017-01-12T10:41:35.600Z,6.14
2017-01-12T10:42:36.941Z,6.12
2017-01-12T10:43:35.325Z,6.17
2017-01-12T10:44:35.936Z,6.11
2017-01-12T10:45:35.974Z,6.17
2017-01-12T10:46:35.708Z,6.14
2017-01-12T10:47:35.937Z,6.12
2017-01-12T10:48:35.503Z,6.02
2017-01-12T10:49:35.634Z,6.05
2017-01-12T10:50:35.948Z,6.04
2017-01-12T10:51:36.416Z,6.11
2017-01-12T10:52:36.245Z,6.05
2017-01-12T10:53:35.852Z,6.12
2017-01-12T10:54:35.738Z,6.07
2017-01-12T10:55:35.983Z,5.99
2017-01-12T10:56:36.235Z,5.99
2017-01-12T10:57:36.027Z,5.98
2017-01-12T10:58:36.446Z,6.01
2017-01-12T10:59:35.945Z,5.99
2017-01-12T11:00:36.699Z,5.97
2017-01-12T11:01:36.915Z,5.97
2017-01-12T11:02:36.177Z,5.93
2017-01-12T11:03:35.766Z,5.93
2017-01-12T11:04:35.886Z,5.82
2017-01-12T11:05:36.083Z,5.82
2017-01-12T11:06:36.395Z,5.87
2017-01-12T11:07:36.809Z,5.87
2017-01-12T11:08:36.808Z,5.93
2017-01-12T11:09:36.432Z,5.94
2017-01-12T11:10:36.217Z,5.93
2017-01-12T11:11:36.067Z,5.98
2017-01-12T11:12:36.138Z,5.9
2017-01-12T11:13:36.196Z,5.9
2017-01-12T11:14:35.828Z,5.87
2017-01-12T11:15:35.819Z,5.87
2017-01-12T11:16:36.369Z,5.86
2017-01-12T11:17:35.816Z,5.76
2017-01-12T11:18:36.959Z,5.82
2017-01-12T11:19:36.527Z,5.86
2017-01-12T11:20:36.156Z,5.87
2017-01-12T11:21:36.221Z,5.93
2017-01-12T11:22:35.965Z,5.97
2017-01-12T11:23:36.810Z,5.97
2017-01-12T11:24:36.951Z,5.97
2017-01-12T11:25:36.299Z,5.99
2017-01-12T11:26:36.329Z,5.98
2017-01-12T11:27:36.837Z,5.91
2017-01-12T11:28:36.076Z,6.01
2017-01-12T11:29:36.036Z,5.99
2017-01-12T11:30:37.352Z,5.98
2017-01-12T11:31:36.071Z,6.11
2017-01-12T11:32:35.862Z,6.05
2017-01-12T11:33:36.664Z,5.98
2017-01-12T11:34:36.859Z,6.08
2017-01-12T11:35:36.228Z,6.11
2017-01-12T11:36:36.008Z,6.05
2017-01-12T11:37:36.190Z,6.04
2017-01-12T11:38:37.230Z,6.05
2017-01-12T11:39:36.415Z,6.11
2017-01-12T11:40:36.530Z,6.09
2017-01-12T11:41:36.979Z,6.09
2017-01-12T11:42:36.356Z,6.07
2017-01-12T11:43:36.579Z,6.04
2017-01-12T11:44:36.333Z,6.08
2017-01-12T11:45:37.150Z,6.08
2017-01-12T11:46:37.061Z,6.07
2017-01-12T11:47:36.264Z,6.11
2017-01-12T11:48:36.407Z,6.07
2017-01-12T11:49:36.822Z,6.01
2017-01-12T11:50:37.034Z,6.04
2017-01-12T11:51:37.739Z,6.08
2017-01-12T11:52:36.575Z,6.11
2017-01-12T11:53:36.842Z,6.16
2017-01-12T11:54:36.586Z,6.14
2017-01-12T11:55:36.988Z,6.08
2017-01-12T11:56:37.187Z,6.14
2017-01-12T11:57:36.704Z,6.17
2017-01-12T11:58:36.761Z,6.16
2017-01-12T11:59:37.121Z,6.17
2017-01-12T12:00:36.970Z,6.24
2017-01-12T12:01:36.968Z,6.28
2017-01-12T12:02:36.587Z,6.22
2017-01-12T12:03:36.477Z,6.2
2017-01-12T12:04:36.422Z,6.22
2017-01-12T12:05:37.498Z,6.19
2017-01-12T12:06:36.477Z,6.19
2017-01-12T12:07:38.045Z,6.27
2017-01-12T12:08:37.067Z,6.22
2017-01-12T12:09:36.802Z,6.14
2017-01-12T12:10:37.336Z,6.17
2017-01-12T12:11:38.527Z,6.16
2017-01-12T12:12:36.697Z,6.27
2017-01-12T12:13:37.123Z,6.2
2017-01-12T12:14:38.000Z,6.19
2017-01-12T12:15:37.682Z,6.14
2017-01-12T12:16:36.900Z,6.14
2017-01-12T12:17:37.609Z,6.17
2017-01-12T12:18:36.843Z,6.14
2017-01-12T12:19:38.964Z,6.14
2017-01-12T12:20:38.433Z,6.14
2017-01-12T12:21:37.053Z,6.12
2017-01-12T12:22:37.098Z,6.11
2017-01-12T12:23:37.886Z,6.16
2017-01-12T12:24:37.666Z,6.16
2017-01-12T12:25:37.080Z,6.16
2017-01-12T12:26:37.406Z,6.08
2017-01-12T12:27:36.982Z,6.07
2017-01-12T12:28:37.008Z,6.11
2017-01-12T12:29:37.970Z,6.01
2017-01-12T12:30:38.432Z,6.11
2017-01-12T12:31:38.548Z,6.11
2017-01-12T12:32:37.234Z,6.08
2017-01-12T12:33:38.002Z,5.97
2017-01-12T12:34:37.350Z,6.05
2017-01-12T12:35:37.940Z,6.05
2017-01-12T12:36:38.322Z,6.01
2017-01-12T12:37:37.935Z,5.97
2017-01-12T12:38:37.671Z,5.99
2017-01-12T12:39:37.834Z,6.01
2017-01-12T12:40:38.250Z,6.07
2017-01-12T12:41:37.878Z,5.97
2017-01-12T12:42:38.413Z,5.93
2017-01-12T12:43:38.072Z,6.07
2017-01-12T12:44:38.271Z,6.07
2017-01-12T12:45:37.285Z,6.14
2017-01-12T12:46:38.204Z,6.08
2017-01-12T12:47:38.570Z,5.99
2017-01-12T12:48:37.213Z,6.02
2017-01-12T12:49:38.047Z,6.02
2017-01-12T12:50:38.470Z,6.01
2017-01-12T12:51:38.215Z,6.02
2017-01-12T12:52:38.303Z,5.98
2017-01-12T12:53:38.196Z,5.91
2017-01-12T12:54:37.480Z,5.97
2017-01-12T12:55:38.700Z,5.99
2017-01-12T12:56:38.756Z,5.97
2017-01-12T12:57:37.656Z,5.97
2017-01-12T12:58:37.964Z,5.9
2017-01-12T12:59:37.524Z,5.97
2017-01-12T13:00:38.104Z,5.97
2017-01-12T13:01:38.364Z,5.9
2017-01-12T13:02:38.058Z,5.89
2017-01-12T13:03:37.908Z,5.91
2017-01-12T13:04:38.560Z,5.84
2017-01-12T13:05:37.989Z,5.86
2017-01-12T13:06:38.243Z,5.89
2017-01-12T13:07:38.071Z,5.86
2017-01-12T13:08:38.652Z,5.83
2017-01-12T13:09:38.052Z,5.83
2017-01-12T13:10:38.397Z,5.73
2017-01-12T13:11:38.602Z,5.73
2017-01-12T13:12:37.591Z,5.79
2017-01-12T13:13:37.798Z,5.76
2017-01-12T13:14:39.384Z,5.72
2017-01-12T13:15:38.276Z,5.73
2017-01-12T13:16:38.515Z,5.8
2017-01-12T13:17:38.064Z,5.65
2017-01-12T13:18:38.287Z,5.65
2017-01-12T13:19:37.835Z,5.65
2017-01-12T13:20:38.442Z,5.72
2017-01-12T13:21:37.675Z,5.75
2017-01-12T13:22:38.120Z,5.68